PWSweather.com
Personal Weather Stations
Station Observations
SANDHURSTWX
SandhurstGB

SandhurstGB

Lat: 51.3522, Lon: -0.7739

Elevation: 272.3

Station Type: Davis VP2

www.sandhurstweather.org.uk

High Low Average
Temperature 66.7°F19.3°C 52.9°F11.6°C 59.1°F15.1°C
Dew Point 60.0°F15.6°C 51.2°F10.7°C 56.2°F13.4°C
Winds 11.5 mph 18.5 kmh Calm Calm 5.0 mph S8.0 kmh S
Wind Gusts 15.0 mph24.1 kmh -- 8.0 mph12.9 kmh
Humidity 97% 72% 90%
Pressure 29.87 in1011.5 mb 29.73 in1006.8 mb -
Precipitation 0.09 in2.3 mm - -
Hour Temp Dew Point Humidity Winds Wind Gusts Pressure Precip Precip Rate Daily Precip Total
12:00 AM 56.0°F13.3°C 54.3°F12.4°C 94% 5.8 mph SSE9.3 kmh SSE 5.8 mph9.3 kmh 29.73 in1006.8 mb - 0.00 in0.0 mm 0.00 in0.0 mm
01:00 AM 55.5°F13.1°C 54.1°F12.3°C 95% 2.3 mph S3.7 kmh S 4.6 mph7.4 kmh 29.75 in1007.5 mb - 0.00 in0.0 mm 0.00 in0.0 mm
02:00 AM 56.6°F13.7°C 55.5°F13.1°C 96% 1.2 mph SW1.9 kmh SW 3.5 mph5.6 kmh 29.76 in1007.8 mb - 0.00 in0.0 mm 0.00 in0.0 mm
03:00 AM 56.6°F13.7°C 55.2°F12.9°C 95% 2.3 mph SW3.7 kmh SW 5.8 mph9.3 kmh 29.78 in1008.5 mb - 0.00 in0.0 mm 0.00 in0.0 mm
04:00 AM 56.1°F13.4°C 54.4°F12.4°C 94% Calm Calm 2.3 mph3.7 kmh 29.79 in1008.8 mb - 0.00 in0.0 mm 0.00 in0.0 mm
05:00 AM 55.4°F13.0°C 53.4°F11.9°C 93% 2.3 mph SW3.7 kmh SW 4.6 mph7.4 kmh 29.81 in1009.5 mb - 0.00 in0.0 mm 0.00 in0.0 mm
06:00 AM 53.7°F12.1°C 51.7°F10.9°C 93% Calm Calm 1.2 mph1.9 kmh 29.83 in1010.2 mb - 0.00 in0.0 mm 0.00 in0.0 mm
07:00 AM 52.9°F11.6°C 51.2°F10.7°C 94% Calm Calm -- 29.84 in1010.5 mb - 0.00 in0.0 mm 0.00 in0.0 mm
08:00 AM 55.6°F13.1°C 53.9°F12.2°C 94% 1.2 mph SSW1.9 kmh SSW 3.5 mph5.6 kmh 29.86 in1011.2 mb - 0.00 in0.0 mm 0.00 in0.0 mm
09:00 AM 61.4°F16.3°C 55.9°F13.3°C 82% 1.2 mph SSW1.9 kmh SSW 2.3 mph3.7 kmh 29.86 in1011.2 mb - 0.00 in0.0 mm 0.00 in0.0 mm
10:00 AM 61.2°F16.2°C 57.0°F13.9°C 86% 4.6 mph SSE7.4 kmh SSE 6.9 mph11.1 kmh 29.87 in1011.5 mb - 0.00 in0.0 mm 0.00 in0.0 mm
11:00 AM 64.6°F18.1°C 57.9°F14.4°C 79% 5.8 mph S9.3 kmh S 9.2 mph14.8 kmh 29.85 in1010.8 mb - 0.00 in0.0 mm 0.00 in0.0 mm
12:00 PM 66.7°F19.3°C 57.4°F14.1°C 72% 5.8 mph S9.3 kmh S 8.1 mph13.0 kmh 29.84 in1010.5 mb - 0.00 in0.0 mm 0.00 in0.0 mm
01:00 PM 65.5°F18.6°C 56.6°F13.7°C 73% 8.1 mph S13.0 kmh S 13.8 mph22.2 kmh 29.84 in1010.5 mb - 0.00 in0.0 mm 0.00 in0.0 mm
02:00 PM 63.5°F17.5°C 57.3°F14.1°C 80% 8.1 mph S13.0 kmh S 11.5 mph18.5 kmh 29.83 in1010.2 mb - 0.00 in0.0 mm 0.00 in0.0 mm
03:00 PM 61.2°F16.2°C 58.2°F14.6°C 90% 8.1 mph SSE13.0 kmh SSE 12.7 mph20.4 kmh 29.83 in1010.2 mb - 0.03 in0.8 mm 0.03 in0.8 mm
04:00 PM 59.7°F15.4°C 57.4°F14.1°C 92% 11.5 mph S18.5 kmh S 15.0 mph24.1 kmh 29.81 in1009.5 mb - 0.02 in0.5 mm 0.05 in1.3 mm
05:00 PM 59.1°F15.1°C 57.1°F13.9°C 93% 5.8 mph S9.3 kmh S 12.7 mph20.4 kmh 29.80 in1009.1 mb - 0.01 in0.3 mm 0.06 in1.5 mm
06:00 PM 58.4°F14.7°C 56.4°F13.6°C 93% 9.2 mph SSE14.8 kmh SSE 12.7 mph20.4 kmh 29.78 in1008.5 mb - 0.00 in0.0 mm 0.06 in1.5 mm
07:00 PM 58.5°F14.7°C 57.1°F13.9°C 95% 10.4 mph SSE16.7 kmh SSE 13.8 mph22.2 kmh 29.78 in1008.5 mb - 0.00 in0.0 mm 0.06 in1.5 mm
08:00 PM 59.4°F15.2°C 58.2°F14.6°C 96% 5.8 mph S9.3 kmh S 9.2 mph14.8 kmh 29.77 in1008.1 mb - 0.02 in0.5 mm 0.08 in2.0 mm
09:00 PM 60.1°F15.6°C 59.2°F15.1°C 97% 6.9 mph S11.1 kmh S 15.0 mph24.1 kmh 29.75 in1007.5 mb - 0.01 in0.3 mm 0.09 in2.3 mm
10:00 PM 60.5°F15.8°C 59.6°F15.3°C 97% 10.4 mph S16.7 kmh S 12.7 mph20.4 kmh 29.74 in1007.1 mb - 0.00 in0.0 mm 0.09 in2.3 mm
11:00 PM 60.8°F16.0°C 60.0°F15.6°C 97% 8.1 mph S13.0 kmh S 10.4 mph16.7 kmh 29.73 in1006.8 mb - 0.01 in0.3 mm 0.10 in2.5 mm